Time;durP1;ratioP1;P1;durP2;ratioP2;P2;SDS_P1;SDS_P2;PMS_P1;PMS_P2;Temp;Humidity;BMP_temperature;BMP_pressure;BME280_temperature;BME280_humidity;BME280_pressure;Samples;Min_cycle;Max_cycle;Signal;HPM_P1;HPM_P2
2022/11/21 00:00:54;;;;;;;19.50;13.83;;;;;;;-1.23;93.23;98473.86;1675597;84;20947;-82
2022/11/21 00:03:23;;;;;;;14.85;12.53;;;;;;;-1.24;93.14;98479.84;1682156;84;21073;-83
2022/11/21 00:05:50;;;;;;;14.87;12.63;;;;;;;-1.23;93.12;98480.67;1673306;84;20967;-83
2022/11/21 00:08:19;;;;;;;18.20;14.83;;;;;;;-1.23;93.12;98475.14;1677801;84;21445;-82
2022/11/21 00:10:46;;;;;;;18.15;13.60;;;;;;;-1.23;93.11;98485.39;1677855;84;20939;-82
2022/11/21 00:13:17;;;;;;;16.57;12.63;;;;;;;-1.18;93.29;98489.95;1673721;84;20951;-82
2022/11/21 00:15:45;;;;;;;18.40;13.38;;;;;;;-1.16;93.19;98487.38;1673521;84;21466;-82
2022/11/21 00:18:12;;;;;;;17.55;13.60;;;;;;;-1.19;93.03;98487.00;1673240;84;21457;-83
2022/11/21 00:20:39;;;;;;;14.77;11.43;;;;;;;-1.18;93.05;98493.80;1674997;84;20951;-82
2022/11/21 00:23:06;;;;;;;15.10;11.73;;;;;;;-1.18;93.12;98496.36;1680123;83;20883;-83
2022/11/21 00:25:33;;;;;;;17.52;12.47;;;;;;;-1.18;93.15;98491.23;1669514;85;20977;-82
2022/11/21 00:28:00;;;;;;;15.48;11.80;;;;;;;-1.22;93.03;98485.78;1652680;86;21290;-83
2022/11/21 00:30:27;;;;;;;16.45;12.47;;;;;;;-1.21;93.09;98493.86;1700374;83;21813;-83
2022/11/21 00:32:54;;;;;;;14.30;11.10;;;;;;;-1.19;93.10;98498.53;1696210;83;20943;-83
2022/11/21 00:35:21;;;;;;;14.50;12.23;;;;;;;-1.17;93.19;98505.75;1700440;83;20918;-82
2022/11/21 00:37:47;;;;;;;16.62;12.28;;;;;;;-1.17;93.13;98501.91;1701952;83;20910;-83
2022/11/21 00:40:14;;;;;;;14.23;12.20;;;;;;;-1.14;93.22;98509.98;1704363;83;21147;-83
2022/11/21 00:42:41;;;;;;;15.90;12.80;;;;;;;-1.14;93.15;98505.69;1697640;83;20919;-82
2022/11/21 00:45:09;;;;;;;12.95;11.00;;;;;;;-1.15;93.12;98504.02;1672688;85;20931;-82
2022/11/21 00:47:36;;;;;;;13.75;11.95;;;;;;;-1.14;93.07;98508.25;1654727;85;21546;-82
2022/11/21 00:50:03;;;;;;;15.43;11.43;;;;;;;-1.16;93.03;98515.11;1702051;83;20963;-82
2022/11/21 00:52:30;;;;;;;13.28;11.03;;;;;;;-1.17;92.95;98512.59;1704825;83;21040;-83
2022/11/21 00:54:56;;;;;;;14.67;11.00;;;;;;;-1.19;93.02;98508.77;1699123;83;20978;-82
2022/11/21 00:57:23;;;;;;;13.88;10.75;;;;;;;-1.17;93.14;98518.56;1702235;83;20934;-83
2022/11/21 00:59:50;;;;;;;13.62;11.55;;;;;;;-1.16;93.18;98508.71;1699670;83;21050;-83
2022/11/21 01:02:16;;;;;;;14.80;10.35;;;;;;;-1.14;93.16;98510.81;1702373;83;20946;-83
2022/11/21 01:04:43;;;;;;;15.60;11.30;;;;;;;-1.11;93.21;98506.52;1702205;83;21888;-83
2022/11/21 01:07:13;;;;;;;14.10;10.82;;;;;;;-1.09;93.24;98507.30;1663084;84;20963;-83
2022/11/21 01:09:39;;;;;;;11.57;9.85;;;;;;;-1.09;93.15;98499.62;1668091;84;20925;-83
2022/11/21 01:12:06;;;;;;;13.53;10.20;;;;;;;-1.06;93.25;98499.59;1671477;84;20945;-83
2022/11/21 01:14:33;;;;;;;13.72;10.55;;;;;;;-1.07;93.11;98496.59;1650577;86;21170;-83
2022/11/21 01:16:59;;;;;;;13.78;10.82;;;;;;;-1.09;93.07;98497.05;1636615;85;21115;-83
2022/11/21 01:19:26;;;;;;;14.43;11.35;;;;;;;-1.09;93.11;98491.93;1669643;85;20950;-83
2022/11/21 01:21:53;;;;;;;15.47;11.50;;;;;;;-1.10;93.08;98477.45;1654182;86;20946;-83
2022/11/21 01:24:20;;;;;;;15.53;11.83;;;;;;;-1.11;93.10;98468.09;1649221;85;20974;-83
2022/11/21 01:26:47;;;;;;;17.17;12.30;;;;;;;-1.13;93.06;98463.82;1641363;85;21147;-83
2022/11/21 01:29:14;;;;;;;16.30;11.45;;;;;;;-1.15;93.01;98454.06;1685553;84;21489;-83
2022/11/21 01:31:41;;;;;;;17.57;13.50;;;;;;;-1.19;92.94;98456.27;1647382;85;21003;-83
2022/11/21 01:34:08;;;;;;;17.20;13.37;;;;;;;-1.24;92.92;98458.07;1684362;84;20927;-83
2022/11/21 01:36:34;;;;;;;18.27;12.73;;;;;;;-1.28;92.93;98451.34;1683715;84;20931;-82
2022/11/21 01:39:05;;;;;;;15.68;11.48;;;;;;;-1.29;93.04;98445.78;1686007;84;20944;-83
2022/11/21 01:41:36;;;;;;;16.32;11.22;;;;;;;-1.33;93.03;98450.58;1686870;83;21022;-83
2022/11/21 01:44:20;;;;;;;14.10;11.60;;;;;;;-1.37;93.00;98445.97;1685352;84;21018;-84
2022/11/21 01:46:48;;;;;;;15.78;12.43;;;;;;;-1.39;92.98;98451.55;1682923;84;20919;-83
2022/11/21 01:49:20;;;;;;;;;;;;;;;-1.44;92.93;98460.19;1688505;84;20971;-83
2022/11/21 01:52:01;;;;;;;14.98;12.70;;;;;;;-1.48;93.03;98468.81;1686186;85;20080;-83
2022/11/21 01:54:44;;;;;;;18.77;12.85;;;;;;;-1.49;93.20;98482.46;1641048;86;21175;-84
2022/11/21 01:57:42;;;;;;;17.95;13.48;;;;;;;-1.47;93.41;98476.89;1686093;84;21630;-84
2022/11/21 02:00:20;;;;;;;15.55;12.03;;;;;;;-1.43;93.39;98487.46;1643306;85;21022;-83
2022/11/21 02:02:51;;;;;;;16.17;12.15;;;;;;;-1.40;93.40;98488.69;1686718;83;20945;-84
2022/11/21 02:05:25;;;;;;;18.55;13.45;;;;;;;-1.41;93.24;98480.61;1685728;83;20971;-83
2022/11/21 02:07:56;;;;;;;16.85;12.68;;;;;;;-1.42;93.28;98486.61;1684356;85;21071;-84
2022/11/21 02:10:24;;;;;;;18.57;14.25;;;;;;;-1.41;93.33;98485.73;1650069;86;20909;-83
2022/11/21 02:12:53;;;;;;;18.77;13.48;;;;;;;-1.41;93.37;98486.56;1684612;85;21555;-83
2022/11/21 02:15:23;;;;;;;17.45;13.32;;;;;;;-1.39;93.43;98491.67;1685243;83;21548;-83
2022/11/21 02:17:50;;;;;;;18.62;14.18;;;;;;;-1.36;93.45;98485.20;1687443;84;21512;-83
2022/11/21 02:20:26;;;;;;;19.48;14.68;;;;;;;-1.35;93.38;98480.48;1686115;83;22049;-83
2022/11/21 02:23:29;;;;;;;18.10;14.55;;;;;;;-1.38;93.31;98479.27;1683461;85;21429;-83
2022/11/21 02:25:56;;;;;;;20.23;15.55;;;;;;;-1.41;93.32;98468.64;1687363;83;21526;-83
2022/11/21 02:28:25;;;;;;;23.10;14.97;;;;;;;-1.43;93.35;98472.10;1688238;83;20943;-84
2022/11/21 02:30:52;;;;;;;23.32;16.32;;;;;;;-1.43;93.42;98461.86;1685483;84;21433;-84
2022/11/21 02:33:20;;;;;;;22.17;15.43;;;;;;;-1.42;93.43;98464.84;1685020;84;21135;-83
2022/11/21 02:35:59;;;;;;;22.40;15.43;;;;;;;-1.42;93.49;98455.89;1647381;86;20920;-83
2022/11/21 02:38:35;;;;;;;22.65;16.27;;;;;;;-1.39;93.54;98459.22;1640454;85;20976;-83
2022/11/21 02:41:16;;;;;;;21.07;15.38;;;;;;;-1.36;93.54;98463.45;1654253;86;20897;-83
2022/11/21 02:43:54;;;;;;;21.95;15.68;;;;;;;-1.34;93.55;98461.70;1686663;84;20896;-83
2022/11/21 02:46:20;;;;;;;23.42;16.32;;;;;;;-1.33;93.52;98460.82;1681909;84;21245;-83
2022/11/21 02:48:47;;;;;;;22.25;15.58;;;;;;;-1.33;93.52;98453.14;1685937;84;20940;-83
2022/11/21 02:51:14;;;;;;;23.05;16.37;;;;;;;-1.31;93.57;98461.64;1685397;83;21023;-83
2022/11/21 02:53:41;;;;;;;24.82;16.73;;;;;;;-1.29;93.60;98466.72;1683831;84;20958;-83
2022/11/21 02:56:07;;;;;;;24.60;18.00;;;;;;;-1.27;93.58;98467.09;1650554;84;20925;-84
2022/11/21 02:58:34;;;;;;;23.00;17.65;;;;;;;-1.28;93.59;98469.70;1683144;84;21879;-83
2022/11/21 03:01:00;;;;;;;25.87;18.90;;;;;;;-1.28;93.63;98476.11;1682936;85;20979;-83
2022/11/21 03:03:27;;;;;;;24.27;18.17;;;;;;;-1.28;93.64;98476.95;1683543;85;20928;-83
2022/11/21 03:05:55;;;;;;;27.40;18.60;;;;;;;-1.28;93.60;98479.51;1685415;83;20938;-83
2022/11/21 03:08:22;;;;;;;27.42;18.85;;;;;;;-1.29;93.61;98470.12;1686143;83;20924;-83
2022/11/21 03:10:48;;;;;;;24.02;17.95;;;;;;;-1.29;93.64;98471.39;1686669;84;22244;-83
2022/11/21 03:13:15;;;;;;;26.25;19.10;;;;;;;-1.30;93.67;98474.84;1686923;84;20956;-83
2022/11/21 03:15:42;;;;;;;27.55;19.25;;;;;;;-1.29;93.74;98480.36;1686224;83;20912;-83
2022/11/21 03:18:09;;;;;;;30.00;19.00;;;;;;;-1.29;93.75;98479.52;1683861;84;21421;-83
2022/11/21 03:20:35;;;;;;;28.90;19.07;;;;;;;-1.29;93.75;98488.04;1686028;83;20884;-83
2022/11/21 03:23:03;;;;;;;27.97;19.27;;;;;;;-1.31;93.71;98494.94;1685588;84;21045;-83
2022/11/21 03:25:30;;;;;;;28.38;19.45;;;;;;;-1.31;93.73;98503.90;1692243;83;27241;-83
2022/11/21 03:27:56;;;;;;;27.87;20.17;;;;;;;-1.32;93.83;98499.63;1703010;83;20917;-83
2022/11/21 03:30:25;;;;;;;30.70;21.12;;;;;;;-1.30;93.94;98499.17;1698996;84;20954;-83
2022/11/21 03:32:55;;;;;;;33.95;21.42;;;;;;;-1.28;93.97;98508.95;1698361;84;21472;-83
2022/11/21 03:35:22;;;;;;;31.40;21.15;;;;;;;-1.28;93.92;98506.40;1695414;84;21030;-83
2022/11/21 03:37:49;;;;;;;31.77;22.10;;;;;;;-1.26;93.95;98508.50;1701017;84;21589;-83
2022/11/21 03:40:15;;;;;;;32.63;22.00;;;;;;;-1.26;94.01;98503.38;1697504;84;20939;-83
2022/11/21 03:42:42;;;;;;;30.60;21.40;;;;;;;-1.24;94.05;98516.98;1699189;84;20948;-83
2022/11/21 03:45:09;;;;;;;33.33;21.30;;;;;;;-1.20;94.02;98517.34;1699715;84;20896;-83
2022/11/21 03:47:36;;;;;;;32.98;20.70;;;;;;;-1.21;94.00;98520.75;1699799;84;21053;-83
2022/11/21 03:50:03;;;;;;;30.80;20.65;;;;;;;-1.21;93.99;98516.91;1699445;83;21074;-84
2022/11/21 03:52:29;;;;;;;31.93;20.62;;;;;;;-1.20;94.01;98521.19;1701721;83;20914;-83
2022/11/21 03:54:56;;;;;;;30.32;19.92;;;;;;;-1.17;94.09;98524.96;1689372;84;21444;-83
2022/11/21 03:57:23;;;;;;;30.70;20.73;;;;;;;-1.17;94.02;98521.13;1693846;83;21659;-83
2022/11/21 03:59:50;;;;;;;31.35;20.85;;;;;;;-1.16;93.98;98529.20;1693525;83;21033;-83
2022/11/21 04:02:16;;;;;;;27.03;20.10;;;;;;;-1.15;94.01;98518.52;1692761;83;21509;-83
2022/11/21 04:04:43;;;;;;;29.73;20.53;;;;;;;-1.14;94.00;98527.46;1692959;83;20971;-83
2022/11/21 04:07:10;;;;;;;25.33;18.93;;;;;;;-1.15;93.97;98519.38;1660838;84;21187;-83
2022/11/21 04:09:36;;;;;;;26.62;18.73;;;;;;;-1.16;93.98;98527.92;1656262;84;21617;-83
2022/11/21 04:12:03;;;;;;;24.20;17.92;;;;;;;-1.14;94.00;98528.74;1659972;84;21043;-83
2022/11/21 04:14:30;;;;;;;24.98;17.27;;;;;;;-1.12;93.98;98523.61;1690091;84;20907;-83
2022/11/21 04:16:56;;;;;;;21.97;17.50;;;;;;;-1.10;93.98;98518.44;1693653;83;21022;-83
2022/11/21 04:19:23;;;;;;;20.75;15.68;;;;;;;-1.11;93.94;98516.76;1693169;83;20900;-83
2022/11/21 04:21:50;;;;;;;24.77;16.27;;;;;;;-1.11;93.83;98512.47;1689714;83;21007;-83
2022/11/21 04:24:17;;;;;;;21.67;16.17;;;;;;;-1.08;94.01;98516.70;1693368;83;21128;-83
2022/11/21 04:26:44;;;;;;;26.37;18.52;;;;;;;-1.06;93.98;98517.52;1684674;84;21076;-83
2022/11/21 04:29:10;;;;;;;27.87;19.30;;;;;;;-1.08;93.89;98515.41;1703977;83;21488;-83
2022/11/21 04:31:37;;;;;;;24.00;18.50;;;;;;;-1.11;93.84;98507.35;1699598;83;20975;-82
2022/11/21 04:34:04;;;;;;;26.25;18.65;;;;;;;-1.13;93.86;98504.80;1702937;83;21029;-83
2022/11/21 04:36:31;;;;;;;28.47;19.12;;;;;;;-1.16;93.86;98507.43;1703840;83;21037;-83
2022/11/21 04:38:58;;;;;;;25.02;17.80;;;;;;;-1.18;93.90;98498.92;1698690;83;20928;-82
2022/11/21 04:41:25;;;;;;;26.93;20.07;;;;;;;-1.19;93.87;98494.69;1698850;83;20954;-82
2022/11/21 04:43:52;;;;;;;27.77;19.73;;;;;;;-1.23;93.77;98493.07;1701165;83;20951;-83
2022/11/21 04:46:18;;;;;;;26.80;17.90;;;;;;;-1.25;93.76;98484.56;1704850;83;20911;-83
2022/11/21 04:48:45;;;;;;;27.40;18.75;;;;;;;-1.25;93.79;98491.41;1701808;83;21869;-83
2022/11/21 04:51:12;;;;;;;27.10;17.97;;;;;;;-1.26;93.85;98483.30;1702762;83;20948;-83
2022/11/21 04:53:38;;;;;;;25.13;18.47;;;;;;;-1.29;93.83;98476.96;1706295;83;21541;-83
2022/11/21 04:56:06;;;;;;;26.33;18.45;;;;;;;-1.32;93.76;98482.98;1699889;83;21044;-83
2022/11/21 04:58:32;;;;;;;22.75;17.48;;;;;;;-1.33;93.86;98478.74;1699299;83;21174;-83
2022/11/21 05:01:08;;;;;;;19.67;15.68;;;;;;;-1.35;93.75;98475.36;1701558;83;21046;-83
2022/11/21 05:03:35;;;;;;;24.35;17.05;;;;;;;-1.40;93.59;98479.72;1701645;83;20998;-83
2022/11/21 05:06:02;;;;;;;25.43;17.55;;;;;;;-1.44;93.58;98475.55;1702881;83;28016;-83
2022/11/21 05:08:29;;;;;;;22.13;16.90;;;;;;;-1.48;93.62;98481.61;1700201;83;20950;-83
2022/11/21 05:13:40;;;;;;;21.15;15.68;;;;;;;-1.48;93.79;98484.17;1700704;83;21105;-83
2022/11/21 05:16:07;;;;;;;20.57;15.08;;;;;;;-1.49;93.80;98480.73;1701809;83;21025;-82
2022/11/21 05:18:35;;;;;;;21.50;16.07;;;;;;;-1.49;93.81;98487.58;1700983;83;21007;-83
2022/11/21 05:21:03;;;;;;;22.22;15.72;;;;;;;-1.51;93.74;98497.00;1698012;83;20994;-82
2022/11/21 05:23:29;;;;;;;19.23;14.78;;;;;;;-1.52;93.69;98492.77;1700544;83;20963;-83
2022/11/21 05:25:56;;;;;;;18.15;15.40;;;;;;;-1.54;93.64;98486.81;1695268;83;21229;-83
2022/11/21 05:28:23;;;;;;;21.53;14.50;;;;;;;-1.59;93.60;98477.52;1691835;84;21010;-83
2022/11/21 05:30:49;;;;;;;17.77;13.60;;;;;;;-1.61;93.58;98481.81;1693428;84;20981;-83
2022/11/21 05:33:16;;;;;;;16.93;13.27;;;;;;;-1.64;93.53;98476.75;1692518;83;21434;-82
2022/11/21 05:35:43;;;;;;;19.13;13.70;;;;;;;-1.65;93.53;98473.80;1691118;83;21014;-83
2022/11/21 05:38:10;;;;;;;19.77;13.32;;;;;;;-1.67;93.53;98467.86;1699244;83;21177;-83
2022/11/21 05:40:36;;;;;;;18.70;13.03;;;;;;;-1.70;93.45;98476.03;1693815;83;21480;-83
2022/11/21 05:45:49;;;;;;;16.37;12.47;;;;;;;-1.80;93.30;98479.17;1692287;83;20951;-83
2022/11/21 05:48:17;;;;;;;17.92;13.05;;;;;;;-1.86;93.25;98477.56;1694019;84;20939;-83
2022/11/21 05:50:49;;;;;;;18.12;12.68;;;;;;;-1.90;93.25;98482.78;1698434;84;21100;-83
2022/11/21 05:53:16;;;;;;;15.80;12.73;;;;;;;-1.96;93.22;98484.13;1698322;84;20876;-83
2022/11/21 05:55:43;;;;;;;17.15;13.22;;;;;;;-1.99;93.24;98489.30;1695864;83;21003;-83
2022/11/21 05:58:10;;;;;;;18.15;12.95;;;;;;;-2.04;93.23;98487.68;1693415;83;20973;-84
2022/11/21 06:00:37;;;;;;;17.70;13.18;;;;;;;-2.08;93.26;98492.42;1693468;84;21521;-83
2022/11/21 06:05:51;;;;;;;18.23;13.07;;;;;;;-2.14;93.30;98493.80;1693022;83;20942;-82
2022/11/21 06:08:18;;;;;;;16.95;13.15;;;;;;;-2.16;93.30;98497.25;1693188;84;20916;-83
2022/11/21 06:10:44;;;;;;;18.50;13.53;;;;;;;-2.18;93.29;98503.69;1693456;83;20904;-83
2022/11/21 06:13:23;;;;;;;21.37;14.00;;;;;;;-2.20;93.27;98501.58;1693728;83;21597;-82
2022/11/21 06:15:53;;;;;;;18.90;13.75;;;;;;;-2.22;93.33;98504.58;1689215;83;21078;-84
2022/11/21 06:18:20;;;;;;;21.30;14.07;;;;;;;-2.24;93.27;98512.73;1682029;83;20980;-85
2022/11/21 06:20:47;;;;;;;21.20;14.13;;;;;;;-2.26;93.32;98509.34;1694552;84;21031;-84
2022/11/21 06:23:14;;;;;;;18.20;13.30;;;;;;;-2.26;93.33;98509.34;1695017;83;21043;-83
2022/11/21 06:25:43;;;;;;;19.70;12.98;;;;;;;-2.26;93.31;98504.23;1695487;83;20942;-86
2022/11/21 06:28:11;;;;;;;18.90;13.62;;;;;;;-2.27;93.27;98507.63;1698906;83;21282;-87
2022/11/21 06:30:38;;;;;;;21.12;15.13;;;;;;;-2.27;93.27;98505.08;1698741;83;20967;-82
2022/11/21 06:33:06;;;;;;;20.75;13.90;;;;;;;-2.28;93.26;98513.63;1689084;83;20990;-83
2022/11/21 06:35:36;;;;;;;21.52;14.75;;;;;;;-2.30;93.16;98512.80;1669670;84;21012;-83
2022/11/21 06:38:03;;;;;;;21.35;14.83;;;;;;;-2.32;93.12;98517.11;1656182;85;21061;-82
2022/11/21 06:40:29;;;;;;;22.60;15.67;;;;;;;-2.35;93.13;98512.02;1651399;85;21158;-83
2022/11/21 06:42:56;;;;;;;24.17;16.23;;;;;;;-2.38;93.15;98513.34;1664468;85;21240;-83
2022/11/21 06:45:23;;;;;;;24.37;17.27;;;;;;;-2.38;93.16;98519.73;1665043;85;21458;-82
2022/11/21 06:47:49;;;;;;;22.22;15.72;;;;;;;-2.39;93.14;98515.50;1662741;85;20969;-82
2022/11/21 06:50:16;;;;;;;27.45;16.42;;;;;;;-2.40;93.14;98518.93;1668185;85;20950;-83
2022/11/21 06:52:43;;;;;;;20.65;15.85;;;;;;;-2.40;93.18;98513.82;1670730;85;21014;-83
2022/11/21 06:55:10;;;;;;;26.95;17.07;;;;;;;-2.40;93.11;98515.94;1663281;85;21019;-83
2022/11/21 06:57:37;;;;;;;22.13;16.17;;;;;;;-2.41;93.10;98509.55;1668567;85;24599;-84
2022/11/21 07:00:05;;;;;;;20.70;15.05;;;;;;;-2.40;93.16;98518.93;1653901;84;21009;-82
2022/11/21 07:02:32;;;;;;;24.80;16.37;;;;;;;-2.38;93.16;98519.73;1658529;84;21005;-84
2022/11/21 07:04:58;;;;;;;24.23;17.33;;;;;;;-2.39;93.09;98519.33;1693016;83;21045;-83
2022/11/21 07:07:25;;;;;;;22.80;17.05;;;;;;;-2.39;93.05;98521.89;1690380;83;21692;-80
2022/11/21 07:09:52;;;;;;;25.30;16.63;;;;;;;-2.40;93.05;98530.00;1693321;83;20997;-82
2022/11/21 07:15:04;;;;;;;32.20;20.35;;;;;;;-2.39;93.12;98528.28;1692209;84;21166;-82
2022/11/21 07:17:30;;;;;;;;;;;;;;;-2.38;93.12;98524.44;1658296;84;21089;-89
2022/11/21 07:19:57;;;;;;;22.48;16.75;;;;;;;-2.35;93.13;98533.74;1687611;83;20093;-82
2022/11/21 07:22:24;;;;;;;26.90;18.10;;;;;;;-2.32;93.16;98532.45;1695187;83;21469;-82
2022/11/21 07:24:51;;;;;;;24.65;17.70;;;;;;;-2.29;93.11;98537.52;1694165;84;20965;-82
2022/11/21 07:27:18;;;;;;;25.15;17.57;;;;;;;-2.25;93.12;98534.03;1662038;84;24749;-82
2022/11/21 07:29:44;;;;;;;28.10;19.20;;;;;;;-2.19;93.11;98536.49;1652832;85;21104;-82
2022/11/21 07:32:11;;;;;;;30.27;19.75;;;;;;;-2.16;93.07;98527.49;1690796;83;20891;-83
2022/11/21 07:34:37;;;;;;;32.08;20.88;;;;;;;-2.09;92.99;98530.83;1693203;83;20896;-82
2022/11/21 07:37:04;;;;;;;42.80;26.07;;;;;;;-2.07;92.96;98525.27;1693608;83;20974;-84
2022/11/21 07:39:31;;;;;;;55.85;32.05;;;;;;;-2.05;92.96;98521.78;1693858;83;21028;-82
2022/11/21 07:41:57;;;;;;;54.58;33.05;;;;;;;-2.00;92.95;98529.39;1693937;83;21237;-80
2022/11/21 07:44:25;;;;;;;43.28;28.05;;;;;;;-1.97;92.88;98521.67;1692440;83;20914;-78
2022/11/21 07:46:55;;;;;;;46.50;30.40;;;;;;;-1.93;92.89;98531.00;1659555;84;20940;-79
2022/11/21 07:49:23;;;;;;;50.80;30.43;;;;;;;-1.88;92.90;98527.06;1660259;84;20982;-79
2022/11/21 07:51:50;;;;;;;48.68;31.12;;;;;;;-1.85;92.86;98521.48;1655892;85;21906;-78
2022/11/21 07:54:16;;;;;;;50.83;32.48;;;;;;;-1.81;92.87;98527.39;1659507;85;21013;-81
2022/11/21 07:56:43;;;;;;;68.50;48.40;;;;;;;-1.77;92.89;98526.45;1654777;84;21006;-76
2022/11/21 07:59:10;;;;;;;63.40;44.77;;;;;;;-1.73;92.81;98525.55;1693578;83;21646;-72
2022/11/21 08:01:37;;;;;;;64.85;46.20;;;;;;;-1.69;92.82;98524.61;1694248;84;20956;-73
2022/11/21 08:04:04;;;;;;;59.67;43.10;;;;;;;-1.63;92.90;98527.06;1693449;83;20978;-79
2022/11/21 08:06:31;;;;;;;41.90;28.77;;;;;;;-1.43;92.87;98525.87;1691524;84;21053;-71
2022/11/21 08:08:58;;;;;;;35.48;24.67;;;;;;;-1.43;92.87;98525.87;1693878;83;21599;-73
2022/11/21 08:11:24;;;;;;;32.77;23.73;;;;;;;-1.33;92.94;98526.12;1692632;84;20912;-73
2022/11/21 08:13:51;;;;;;;33.33;23.92;;;;;;;-1.20;92.91;98525.02;1660378;85;20934;-72
2022/11/21 08:16:23;;;;;;;25.63;19.37;;;;;;;-1.00;93.05;98530.20;1692425;83;21308;-74
2022/11/21 08:18:50;;;;;;;25.23;20.25;;;;;;;-0.86;92.95;98528.20;1664032;84;21480;-73
2022/11/21 08:21:18;;;;;;;28.65;19.52;;;;;;;-0.68;93.01;98535.50;1660942;84;21005;-71
2022/11/21 08:23:45;;;;;;;24.57;17.85;;;;;;;-0.52;92.94;98528.34;1657608;85;20951;-73
2022/11/21 08:26:12;;;;;;;24.20;17.40;;;;;;;-0.39;92.63;98523.80;1659987;85;20936;-74
2022/11/21 08:28:38;;;;;;;22.82;17.27;;;;;;;-0.28;92.58;98532.09;1658481;86;20976;-74
2022/11/21 08:31:06;;;;;;;24.35;17.65;;;;;;;-0.10;92.40;98535.11;1691398;83;130905;-73
2022/11/21 08:33:33;;;;;;;24.40;17.23;;;;;;;-0.01;92.29;98540.86;1693920;83;20906;-72
2022/11/21 08:36:05;;;;;;;24.87;16.75;;;;;;;0.10;92.28;98531.63;1691710;84;21647;-70
2022/11/21 08:38:33;;;;;;;22.58;17.48;;;;;;;0.23;92.13;98533.92;1692068;83;20975;-72
2022/11/21 08:43:46;;;;;;;26.57;17.87;;;;;;;0.45;91.97;98536.35;1691609;83;20979;-77
2022/11/21 08:46:12;;;;;;;51.98;20.32;;;;;;;0.55;92.07;98539.06;1693027;84;21453;-79
2022/11/21 08:48:39;;;;;;;47.17;19.75;;;;;;;0.60;91.78;98532.09;1693620;84;20987;-83
2022/11/21 08:51:05;;;;;;;30.65;17.80;;;;;;;0.63;91.60;98537.14;1695857;84;20892;-79
2022/11/21 08:53:32;;;;;;;203.52;32.48;;;;;;;0.63;91.33;98538.43;1692747;84;21006;-79
2022/11/21 08:55:59;;;;;;;35.92;18.42;;;;;;;0.57;91.52;98537.31;1693837;84;20994;-79
2022/11/21 08:58:25;;;;;;;24.67;18.50;;;;;;;0.60;91.60;98541.08;1699760;83;20951;-81
2022/11/21 09:00:52;;;;;;;28.38;23.10;;;;;;;0.48;91.00;98542.69;1692896;84;21494;-75
2022/11/21 09:03:19;;;;;;;30.37;19.90;;;;;;;0.33;90.77;98536.64;1691694;84;21501;-78
2022/11/21 09:05:46;;;;;;;22.97;17.03;;;;;;;0.18;90.63;98541.27;1692128;84;20931;-77
2022/11/21 09:08:12;;;;;;;27.98;20.35;;;;;;;0.07;90.79;98535.55;1694241;84;21907;-80
2022/11/21 09:10:39;;;;;;;34.53;22.70;;;;;;;-0.01;90.93;98534.89;1692865;84;21449;-80
2022/11/21 09:13:06;;;;;;;32.53;23.50;;;;;;;-0.04;91.03;98538.81;1693256;83;20962;-88
2022/11/21 09:18:18;;;;;;;38.40;24.02;;;;;;;-0.23;90.75;98543.06;1692203;84;20975;-81
2022/11/21 09:20:45;;;;;;;33.80;22.77;;;;;;;-0.33;90.72;98546.73;1697604;83;21042;-81
2022/11/21 09:23:14;;;;;;;42.17;27.73;;;;;;;-0.39;90.66;98540.88;1694914;83;20939;-82
2022/11/21 09:25:42;;;;;;;37.50;24.87;;;;;;;-0.46;90.69;98544.03;1695243;83;21504;-83
2022/11/21 09:28:11;;;;;;;41.60;23.75;;;;;;;-0.47;90.87;98536.78;1702025;83;20919;-83
2022/11/21 09:30:40;;;;;;;34.48;23.65;;;;;;;-0.44;90.86;98548.69;1697987;83;20895;-82
2022/11/21 09:33:11;;;;;;;32.40;22.40;;;;;;;-0.38;90.84;98545.98;1697582;83;21062;-78
2022/11/21 09:35:38;;;;;;;32.63;21.77;;;;;;;-0.23;91.22;98550.77;1699170;83;20947;-80
2022/11/21 09:38:05;;;;;;;29.87;21.93;;;;;;;-0.05;91.14;98549.97;1699298;83;21005;-78
2022/11/21 09:40:34;;;;;;;30.30;21.20;;;;;;;0.20;91.33;98549.79;1699277;83;21045;-83
2022/11/21 09:43:44;;;;;;;32.40;22.50;;;;;;;0.43;91.18;98548.38;1703311;83;21075;-85
2022/11/21 09:46:16;;;;;;;26.77;19.87;;;;;;;0.64;91.04;98557.25;1701726;83;21151;-80
2022/11/21 09:48:51;;;;;;;27.93;18.12;;;;;;;0.87;90.95;98556.67;1699780;83;21009;-82
2022/11/21 09:51:20;;;;;;;23.25;16.77;;;;;;;1.01;90.81;98545.98;1702220;83;21492;-78
2022/11/21 09:54:07;;;;;;;27.65;18.65;;;;;;;1.12;90.76;98555.53;1699783;83;21455;-78
2022/11/21 09:56:37;;;;;;;;;;;;;;;1.21;90.71;98554.46;1696811;83;21016;-75
2022/11/21 09:59:21;;;;;;;137.50;32.42;;;;;;;1.34;90.43;98560.92;1697303;83;21879;-77
2022/11/21 10:01:48;;;;;;;32.45;19.35;;;;;;;1.36;90.65;98561.73;1697193;83;21567;-76
2022/11/21 10:04:25;;;;;;;22.52;15.83;;;;;;;1.28;90.11;98559.81;1699094;83;20971;-77
2022/11/21 10:07:06;;;;;;;;;;;;;;;1.21;90.12;98558.32;1701537;83;21571;-79
2022/11/21 10:13:47;;;;;;;26.12;18.85;;;;;;;1.08;90.22;98558.64;1679525;84;20965;-81
2022/11/21 10:16:37;;;;;;;62.45;17.10;;;;;;;1.00;90.21;98564.88;1680597;84;20978;-77
2022/11/21 10:19:35;;;;;;;24.43;14.63;;;;;;;0.96;90.23;98558.98;1688535;84;20957;-78
2022/11/21 10:22:27;;;;;;;70.87;20.32;;;;;;;0.95;90.48;98557.28;1685388;83;21491;-76
2022/11/21 10:25:03;;;;;;;47.78;16.05;;;;;;;0.90;90.23;98564.30;1691897;84;20953;-80
2022/11/21 10:27:47;;;;;;;18.92;11.88;;;;;;;0.85;90.11;98558.43;1673654;84;21026;-78
2022/11/21 10:30:19;;;;;;;31.90;13.58;;;;;;;0.88;90.64;98558.34;1676934;84;20957;-76
2022/11/21 10:32:52;;;;;;;19.85;12.53;;;;;;;0.86;90.17;98554.97;1685586;84;21066;-74
2022/11/21 10:35:27;;;;;;;129.45;26.37;;;;;;;0.96;90.71;98551.28;1684600;84;21502;-80
2022/11/21 10:37:59;;;;;;;32.23;14.78;;;;;;;1.23;92.18;98550.09;1678002;84;21025;-75
2022/11/21 10:40:42;;;;;;;20.82;13.22;;;;;;;1.28;90.88;98554.67;1674401;84;21901;-78
2022/11/21 10:46:17;;;;;;;17.40;12.23;;;;;;;1.03;89.87;98547.64;1689917;83;20950;-76
2022/11/21 10:49:03;;;;;;;31.52;15.93;;;;;;;1.00;90.09;98558.00;1693906;83;21556;-75
2022/11/21 10:51:57;;;;;;;30.68;15.83;;;;;;;1.04;90.27;98557.05;1684285;83;20967;-75
2022/11/21 10:54:33;;;;;;;20.65;13.80;;;;;;;1.15;90.44;98554.19;1684979;80;36307;-77
2022/11/21 10:57:13;;;;;;;18.42;11.83;;;;;;;1.24;89.81;98555.66;1683011;83;20935;-77
2022/11/21 10:59:40;;;;;;;13.93;10.08;;;;;;;1.26;89.86;98561.58;1682314;83;20967;-76
2022/11/21 11:02:20;;;;;;;19.17;13.33;;;;;;;1.21;89.31;98555.75;1691610;83;21435;-74
2022/11/21 11:04:47;;;;;;;26.00;11.53;;;;;;;1.27;89.76;98555.13;1692691;83;20976;-75
2022/11/21 11:07:24;;;;;;;53.70;13.47;;;;;;;1.29;89.74;98562.81;1691721;83;21045;-81
2022/11/21 11:09:52;;;;;;;26.27;12.03;;;;;;;1.32;89.80;98559.70;1676362;84;21710;-80
2022/11/21 11:27:27;;;;;;;39.45;22.95;;;;;;;-0.13;88.62;98573.22;1846989;75;22676;-87
2022/11/21 11:29:54;;;;;;;39.85;24.77;;;;;;;-0.30;88.92;98580.02;1835704;77;21610;-85
2022/11/21 11:32:22;;;;;;;43.85;26.35;;;;;;;-0.24;89.78;98582.44;1833327;76;21112;-84
2022/11/21 11:35:00;;;;;;;36.40;24.50;;;;;;;-0.24;89.78;98582.44;1837187;77;21568;-91
2022/11/21 11:37:40;;;;;;;38.92;24.27;;;;;;;-0.10;89.77;98583.86;1829390;77;20961;-86
2022/11/21 11:40:27;;;;;;;36.73;23.05;;;;;;;0.03;89.90;98587.84;1838513;77;21526;-90
2022/11/21 11:52:35;;;;;;;40.75;26.65;;;;;;;0.65;89.66;98577.78;1829402;77;21498;-89
2022/11/21 11:55:06;;;;;;;34.03;21.70;;;;;;;0.81;89.59;98582.50;1825125;77;20928;-89
2022/11/21 11:57:36;;;;;;;29.57;20.52;;;;;;;0.81;89.05;98578.66;1834227;75;20996;-89
2022/11/21 12:00:43;;;;;;;27.35;20.23;;;;;;;0.78;88.99;98582.59;1828534;77;21057;-90
2022/11/21 12:03:27;;;;;;;;;;;;;;;0.72;88.76;98576.33;1846891;76;21005;-88
2022/11/21 12:06:19;;;;;;;32.55;20.62;;;;;;;0.69;88.84;98580.27;1846174;76;20224;-90
2022/11/21 12:08:59;;;;;;;22.70;16.90;;;;;;;0.66;88.85;98576.05;1837810;77;20977;-84
2022/11/21 12:18:23;;;;;;;27.70;16.97;;;;;;;0.56;88.70;98562.61;1885456;76;21923;-85
2022/11/21 12:21:14;;;;;;;28.35;19.48;;;;;;;0.46;88.50;98568.84;1792996;79;20982;-78
2022/11/21 12:23:53;;;;;;;22.42;16.73;;;;;;;0.37;88.60;98573.77;1767149;79;21967;-82
2022/11/21 12:26:46;;;;;;;26.00;17.60;;;;;;;0.33;88.74;98562.31;1791831;78;20950;-82